Time,TemperatureF,DewpointF,PressureIn,WindDirection,WindDirectionDegrees,WindSpeedMPH,WindSpeedGustMPH,Humidity,HourlyPrecipIn,Conditions,Clouds,dailyrainin,SolarRadiationWatts/m^2,SoftwareType,DateUTC
2013-06-08 00:05:00,54.8,54.0,29.87,ENE,71,3.0,8.0,97,0.16,,,0.03,0,weatherlink.com 1.10,2013-06-08 04:05:00,
2013-06-08 00:20:00,54.8,54.0,29.86,NE,41,2.0,11.0,97,0.13,,,0.06,0,weatherlink.com 1.10,2013-06-08 04:20:00,
2013-06-08 00:35:00,54.8,54.0,29.86,ENE,62,3.0,8.0,97,0.13,,,0.09,0,weatherlink.com 1.10,2013-06-08 04:35:00,
2013-06-08 00:50:00,54.7,54.0,29.84,NE,51,5.0,10.0,97,0.12,,,0.11,0,weatherlink.com 1.10,2013-06-08 04:50:00,
2013-06-08 01:05:00,54.6,54.0,29.83,NE,37,6.0,12.0,97,0.15,,,0.18,0,weatherlink.com 1.10,2013-06-08 05:05:00,
2013-06-08 01:20:00,54.6,54.0,29.83,NNE,27,2.0,9.0,97,0.17,,,0.23,0,weatherlink.com 1.10,2013-06-08 05:20:00,
2013-06-08 01:35:00,54.5,54.0,29.82,NE,46,7.0,11.0,97,0.18,,,0.27,0,weatherlink.com 1.10,2013-06-08 05:35:00,
2013-06-08 01:50:00,54.5,53.0,29.81,ENE,63,8.0,11.0,96,0.17,,,0.30,0,weatherlink.com 1.10,2013-06-08 05:50:00,
2013-06-08 02:05:00,54.5,54.0,29.81,North,355,3.0,9.0,97,0.13,,,0.31,0,weatherlink.com 1.10,2013-06-08 06:05:00,
2013-06-08 02:20:00,54.5,53.0,29.81,NNE,18,2.0,9.0,96,0.14,,,0.38,0,weatherlink.com 1.10,2013-06-08 06:20:00,
2013-06-08 02:35:00,54.3,54.0,29.78,NE,51,4.0,11.0,97,0.13,,,0.40,0,weatherlink.com 1.10,2013-06-08 06:35:00,
2013-06-08 02:51:00,54.4,54.0,29.77,ENE,66,4.0,11.0,97,0.11,,,0.41,0,weatherlink.com 1.10,2013-06-08 06:51:00,
2013-06-08 03:06:00,54.5,54.0,29.77,NE,47,3.0,10.0,97,0.11,,,0.42,0,weatherlink.com 1.10,2013-06-08 07:06:00,
2013-06-08 03:21:00,54.6,54.0,29.76,NE,38,5.0,10.0,96,0.10,,,0.48,0,weatherlink.com 1.10,2013-06-08 07:21:00,
2013-06-08 03:36:00,54.7,54.0,29.74,North,355,4.0,9.0,96,0.07,,,0.48,0,weatherlink.com 1.10,2013-06-08 07:36:00,
2013-06-08 03:51:00,54.8,54.0,29.74,NNE,16,4.0,8.0,97,0.07,,,0.48,0,weatherlink.com 1.10,2013-06-08 07:51:00,
2013-06-08 04:06:00,54.8,54.0,29.73,NNE,27,2.0,7.0,97,0.10,,,0.52,0,weatherlink.com 1.10,2013-06-08 08:06:00,
2013-06-08 04:21:00,54.7,54.0,29.73,ENE,65,5.0,8.0,97,0.05,,,0.53,0,weatherlink.com 1.10,2013-06-08 08:21:00,
2013-06-08 04:36:00,54.7,54.0,29.72,NE,54,4.0,10.0,97,0.06,,,0.54,0,weatherlink.com 1.10,2013-06-08 08:36:00,
2013-06-08 04:51:00,54.8,54.0,29.71,NNE,24,3.0,8.0,97,0.06,,,0.54,0,weatherlink.com 1.10,2013-06-08 08:51:00,
2013-06-08 05:06:00,54.8,54.0,29.70,North,5,5.0,12.0,96,0.02,,,0.54,0,weatherlink.com 1.10,2013-06-08 09:06:00,
2013-06-08 05:21:00,54.7,54.0,29.70,NE,40,9.0,9.0,96,0.01,,,0.54,0,weatherlink.com 1.10,2013-06-08 09:21:00,
2013-06-08 06:06:00,54.5,54.0,29.68,NNE,33,3.0,11.0,97,0.05,,,0.59,14,weatherlink.com 1.10,2013-06-08 10:06:00,
2013-06-08 06:21:00,54.6,54.0,29.68,NNE,32,3.0,9.0,97,0.05,,,0.59,25,weatherlink.com 1.10,2013-06-08 10:21:00,
2013-06-08 06:36:00,54.7,54.0,29.67,NE,35,7.0,10.0,97,0.07,,,0.61,33,weatherlink.com 1.10,2013-06-08 10:36:00,
2013-06-08 06:51:00,54.9,54.0,29.67,NNW,338,6.0,10.0,97,0.05,,,0.61,49,weatherlink.com 1.10,2013-06-08 10:51:00,
2013-06-08 07:06:00,55.0,54.0,29.68,North,350,3.0,15.0,97,0.03,,,0.62,76,weatherlink.com 1.10,2013-06-08 11:06:00,
2013-06-08 07:21:00,55.2,54.0,29.68,NE,38,6.0,11.0,97,0.03,,,0.62,63,weatherlink.com 1.10,2013-06-08 11:21:00,
2013-06-08 07:36:00,55.3,55.0,29.68,North,355,8.0,15.0,97,0.01,,,0.62,74,weatherlink.com 1.10,2013-06-08 11:36:00,
2013-06-08 07:51:00,55.5,54.0,29.68,NNW,346,4.0,15.0,96,0.01,,,0.62,155,weatherlink.com 1.10,2013-06-08 11:51:00,
2013-06-08 08:06:00,55.8,55.0,29.69,NE,39,6.0,13.0,96,0.00,,,0.62,148,weatherlink.com 1.10,2013-06-08 12:06:00,
2013-06-08 08:21:00,56.0,55.0,29.69,NNW,329,9.0,14.0,96,0.00,,,0.62,192,weatherlink.com 1.10,2013-06-08 12:21:00,
2013-06-08 08:36:00,56.4,55.0,29.71,NNW,342,1.0,13.0,96,0.00,,,0.62,165,weatherlink.com 1.10,2013-06-08 12:36:00,
2013-06-08 08:51:00,56.7,56.0,29.74,NW,322,7.0,12.0,96,0.00,,,0.62,163,weatherlink.com 1.10,2013-06-08 12:51:00,
2013-06-08 09:06:00,57.1,56.0,29.75,West,273,6.0,12.0,95,0.00,,,0.62,113,weatherlink.com 1.10,2013-06-08 13:06:00,
2013-06-08 09:21:00,57.4,56.0,29.76,WNW,302,6.0,10.0,95,0.00,,,0.62,227,weatherlink.com 1.10,2013-06-08 13:21:00,
2013-06-08 09:36:00,57.6,56.0,29.77,NNW,333,12.0,14.0,95,0.00,,,0.62,313,weatherlink.com 1.10,2013-06-08 13:36:00,
2013-06-08 09:51:00,58.2,57.0,29.78,NW,316,8.0,17.0,95,0.00,,,0.62,323,weatherlink.com 1.10,2013-06-08 13:51:00,
2013-06-08 10:07:00,59.2,57.0,29.78,North,355,6.0,16.0,92,0.00,,,0.62,427,weatherlink.com 1.10,2013-06-08 14:07:00,
2013-06-08 10:22:00,60.3,58.0,29.78,WNW,293,4.0,18.0,91,0.00,,,0.62,480,weatherlink.com 1.10,2013-06-08 14:22:00,
2013-06-08 10:37:00,60.8,58.0,29.80,NW,319,10.0,14.0,89,0.00,,,0.62,478,weatherlink.com 1.10,2013-06-08 14:37:00,
2013-06-08 10:52:00,61.9,58.0,29.80,WNW,286,7.0,16.0,87,0.00,,,0.62,533,weatherlink.com 1.10,2013-06-08 14:52:00,
2013-06-08 11:07:00,62.8,59.0,29.82,WNW,300,2.0,16.0,86,0.00,,,0.62,510,weatherlink.com 1.10,2013-06-08 15:07:00,
2013-06-08 11:22:00,63.5,59.0,29.84,NW,313,6.0,13.0,84,0.00,,,0.62,316,weatherlink.com 1.10,2013-06-08 15:22:00,
2013-06-08 11:37:00,64.1,59.0,29.84,NNW,336,6.0,10.0,84,0.00,,,0.62,649,weatherlink.com 1.10,2013-06-08 15:37:00,
2013-06-08 11:52:00,65.7,60.0,29.84,NW,319,9.0,11.0,81,0.00,,,0.62,946,weatherlink.com 1.10,2013-06-08 15:52:00,
2013-06-08 12:07:00,66.8,60.0,29.84,NW,306,5.0,12.0,80,0.00,,,0.62,420,weatherlink.com 1.10,2013-06-08 16:07:00,
2013-06-08 12:22:00,68.3,61.0,29.85,NW,307,2.0,14.0,77,0.00,,,0.62,410,weatherlink.com 1.10,2013-06-08 16:22:00,
2013-06-08 12:37:00,69.5,61.0,29.85,WSW,254,3.0,14.0,75,0.00,,,0.62,1072,weatherlink.com 1.10,2013-06-08 16:37:00,
2013-06-08 12:52:00,70.8,61.0,29.86,WSW,246,5.0,14.0,72,0.00,,,0.62,1222,weatherlink.com 1.10,2013-06-08 16:52:00,
2013-06-08 13:07:00,72.0,61.0,29.86,NW,321,2.0,14.0,69,0.00,,,0.62,573,weatherlink.com 1.10,2013-06-08 17:07:00,
2013-06-08 13:22:00,72.8,62.0,29.86,WSW,240,7.0,12.0,69,0.00,,,0.62,446,weatherlink.com 1.10,2013-06-08 17:22:00,
2013-06-08 13:37:00,73.5,62.0,29.87,WSW,243,5.0,13.0,67,0.00,,,0.62,967,weatherlink.com 1.10,2013-06-08 17:37:00,
2013-06-08 13:52:00,74.3,62.0,29.86,West,267,5.0,13.0,66,0.00,,,0.62,1018,weatherlink.com 1.10,2013-06-08 17:52:00,
2013-06-08 14:07:00,75.1,62.0,29.87,West,261,3.0,14.0,65,0.00,,,0.62,1023,weatherlink.com 1.10,2013-06-08 18:07:00,
2013-06-08 14:22:00,75.7,63.0,29.88,West,275,4.0,14.0,65,0.00,,,0.62,826,weatherlink.com 1.10,2013-06-08 18:22:00,
2013-06-08 14:37:00,76.3,63.0,29.88,West,268,5.0,11.0,63,0.00,,,0.62,837,weatherlink.com 1.10,2013-06-08 18:37:00,
2013-06-08 14:52:00,77.1,63.0,29.87,West,276,8.0,15.0,62,0.00,,,0.62,536,weatherlink.com 1.10,2013-06-08 18:52:00,
2013-06-08 15:07:00,77.9,64.0,29.88,West,281,3.0,14.0,62,0.00,,,0.62,900,weatherlink.com 1.10,2013-06-08 19:07:00,
2013-06-08 15:22:00,77.9,64.0,29.88,NNW,338,2.0,10.0,62,0.00,,,0.62,566,weatherlink.com 1.10,2013-06-08 19:22:00,
2013-06-08 15:38:00,77.7,63.0,29.89,WSW,240,2.0,14.0,61,0.00,,,0.62,322,weatherlink.com 1.10,2013-06-08 19:38:00,
2013-06-08 15:53:00,77.7,64.0,29.89,West,261,2.0,15.0,62,0.00,,,0.62,473,weatherlink.com 1.10,2013-06-08 19:53:00,
2013-06-08 16:08:00,78.8,64.0,29.89,West,272,2.0,14.0,61,0.00,,,0.62,763,weatherlink.com 1.10,2013-06-08 20:08:00,
2013-06-08 16:23:00,78.6,64.0,29.89,West,260,5.0,12.0,61,0.00,,,0.62,221,weatherlink.com 1.10,2013-06-08 20:23:00,
2013-06-08 16:38:00,78.1,64.0,29.89,West,263,3.0,15.0,62,0.00,,,0.62,745,weatherlink.com 1.10,2013-06-08 20:38:00,
2013-06-08 16:53:00,79.1,64.0,29.90,SW,214,4.0,12.0,61,0.00,,,0.62,598,weatherlink.com 1.10,2013-06-08 20:53:00,
2013-06-08 17:08:00,80.0,65.0,29.90,WSW,248,6.0,11.0,60,0.00,,,0.62,573,weatherlink.com 1.10,2013-06-08 21:08:00,
2013-06-08 17:23:00,79.5,63.0,29.91,West,270,3.0,12.0,57,0.00,,,0.62,204,weatherlink.com 1.10,2013-06-08 21:23:00,
2013-06-08 17:38:00,78.5,63.0,29.92,WSW,253,5.0,13.0,59,0.00,,,0.62,116,weatherlink.com 1.10,2013-06-08 21:38:00,
2013-06-08 17:53:00,77.7,63.0,29.92,WSW,257,6.0,17.0,60,0.00,,,0.62,146,weatherlink.com 1.10,2013-06-08 21:53:00,
2013-06-08 18:08:00,77.3,63.0,29.93,West,262,5.0,11.0,62,0.00,,,0.62,100,weatherlink.com 1.10,2013-06-08 22:08:00,
2013-06-08 18:23:00,76.6,63.0,29.94,NW,309,5.0,14.0,64,0.00,,,0.62,107,weatherlink.com 1.10,2013-06-08 22:23:00,
2013-06-08 18:38:00,75.6,63.0,29.95,WNW,292,8.0,16.0,64,0.00,,,0.62,109,weatherlink.com 1.10,2013-06-08 22:38:00,
2013-06-08 18:53:00,75.2,63.0,29.95,West,262,5.0,14.0,65,0.00,,,0.62,86,weatherlink.com 1.10,2013-06-08 22:53:00,
2013-06-08 19:08:00,74.2,63.0,29.96,WSW,253,5.0,14.0,67,0.00,,,0.62,54,weatherlink.com 1.10,2013-06-08 23:08:00,
2013-06-08 19:23:00,73.7,62.0,29.98,West,278,5.0,11.0,66,0.00,,,0.62,54,weatherlink.com 1.10,2013-06-08 23:23:00,
2013-06-08 19:38:00,73.3,62.0,29.98,West,275,4.0,7.0,67,0.00,,,0.62,30,weatherlink.com 1.10,2013-06-08 23:38:00,
2013-06-08 19:53:00,72.6,61.0,29.98,NW,304,4.0,10.0,67,0.00,,,0.62,16,weatherlink.com 1.10,2013-06-08 23:53:00,
2013-06-08 20:08:00,72.1,61.0,29.98,WNW,298,3.0,9.0,67,0.00,,,0.62,7,weatherlink.com 1.10,2013-06-09 00:08:00,
2013-06-08 20:23:00,71.6,60.0,29.99,West,277,3.0,9.0,68,0.00,,,0.62,0,weatherlink.com 1.10,2013-06-09 00:23:00,
2013-06-08 20:38:00,70.8,60.0,30.00,West,272,6.0,10.0,68,0.00,,,0.62,0,weatherlink.com 1.10,2013-06-09 00:38:00,
2013-06-08 20:53:00,70.1,59.0,30.01,West,261,1.0,8.0,69,0.00,,,0.62,0,weatherlink.com 1.10,2013-06-09 00:53:00,
2013-06-08 21:08:00,69.6,60.0,30.01,West,271,2.0,4.0,72,0.00,,,0.62,0,weatherlink.com 1.10,2013-06-09 01:08:00,
2013-06-08 21:23:00,69.0,60.0,30.02,West,263,1.0,6.0,73,0.00,,,0.62,0,weatherlink.com 1.10,2013-06-09 01:23:00,
2013-06-08 21:38:00,68.5,60.0,30.02,WSW,245,1.0,5.0,74,0.00,,,0.62,0,weatherlink.com 1.10,2013-06-09 01:38:00,
2013-06-08 21:53:00,68.2,60.0,30.03,WNW,288,1.0,3.0,75,0.00,,,0.62,0,weatherlink.com 1.10,2013-06-09 01:53:00,
2013-06-08 22:08:00,67.7,60.0,30.03,WNW,283,1.0,2.0,76,0.00,,,0.62,0,weatherlink.com 1.10,2013-06-09 02:08:00,
2013-06-08 22:23:00,67.2,60.0,30.03,West,276,1.0,3.0,77,0.00,,,0.62,0,weatherlink.com 1.10,2013-06-09 02:23:00,
2013-06-08 22:38:00,66.6,60.0,30.04,WNW,285,1.0,4.0,79,0.00,,,0.62,0,weatherlink.com 1.10,2013-06-09 02:38:00,
2013-06-08 22:53:00,66.1,60.0,30.05,WSW,254,0.0,4.0,80,0.00,,,0.62,0,weatherlink.com 1.10,2013-06-09 02:53:00,
2013-06-08 23:08:00,66.0,60.0,30.05,West,275,1.0,4.0,80,0.00,,,0.62,0,weatherlink.com 1.10,2013-06-09 03:08:00,
2013-06-08 23:23:00,65.7,60.0,30.05,West,261,1.0,3.0,81,0.00,,,0.62,0,weatherlink.com 1.10,2013-06-09 03:23:00,
2013-06-08 23:38:00,65.4,59.0,30.06,West,262,3.0,4.0,81,0.00,,,0.62,0,weatherlink.com 1.10,2013-06-09 03:38:00,
2013-06-08 23:53:00,65.2,60.0,30.06,WNW,286,0.0,4.0,82,0.00,,,0.62,0,weatherlink.com 1.10,2013-06-09 03:53:00,